Strona główna
METAR-TAF:

METAR-TAF

Lotnisko :

Chōfu, Japonia

Szerokość geograficzna: 35-40N, Długość geograficzna: 139-32E, wysokość: 41 m

Aktualna obserwacja pogody

Raport powstał 13 godziny i 18 minut temu, godzina 08:00 UTC
Wiatr 8 kt od południe, zmienny między południowo-południowy wschód i południowy zachód
Temperatura 33°C
Wilgotność 63%
Ciśnienie 1009 hPa
Widzialność 10 km lub więcej
Mało chmury na wysokości 3000 ft
Przerywane chmury

METAR: RJTF 170800Z 18008KT 150V220 9999 FEW030 BKN/// 33/25 Q1009

czas: 06:18 (21:18 UTC)


TAF: brakujący

Obserwacja i prognoza pogody dla ponad 4000 lotnisk (raport METAR i TAF).

Dostępne stacje oznaczono żółtymi i czerwonymi punktami na mapie.

Najedź kursorem aby zobaczyć nazwę stacji.

Kliknij aby zobaczyć obserwacje i prognozy pogody.

Aby zmienić mapę: kliknij na zielony przycisk z czarnym krzyżykiem, aby powiększyć; na zielony przycisk z myślnikiem, aby pomniejszyć; na zielone strzałki, aby przejść do map sąsiednich.


METAR-TAF: